Time;durP1;ratioP1;P1;durP2;ratioP2;P2;SDS_P1;SDS_P2;PMS_P1;PMS_P2;Temp;Humidity;BMP_temperature;BMP_pressure;BME280_temperature;BME280_humidity;BME280_pressure;Samples;Min_cycle;Max_cycle;Signal;HPM_P1;HPM_P2
2021/05/03 00:02:18;;;;;;;18.83;3.73;;;20.60;58.80;;;;;;5064228;28;20196;-67
2021/05/03 00:04:44;;;;;;;24.30;3.80;;;20.70;59.10;;;;;;5062159;28;20197;-66
2021/05/03 00:07:11;;;;;;;16.17;4.17;;;20.90;57.70;;;;;;5060043;28;20192;-65
2021/05/03 00:09:37;;;;;;;19.17;3.57;;;21.20;56.80;;;;;;5058998;28;20242;-62
2021/05/03 00:12:04;;;;;;;21.47;4.13;;;21.20;58.90;;;;;;5063462;28;20194;-64
2021/05/03 00:14:31;;;;;;;26.27;3.60;;;21.20;56.40;;;;;;5063756;28;20282;-66
2021/05/03 00:16:57;;;;;;;12.43;3.97;;;21.40;56.60;;;;;;5062576;28;20209;-63
2021/05/03 00:19:24;;;;;;;17.40;3.80;;;21.40;59.30;;;;;;5064860;28;20244;-65
2021/05/03 00:21:50;;;;;;;19.20;3.53;;;21.20;59.40;;;;;;5060238;28;20183;-62
2021/05/03 00:24:16;;;;;;;19.47;3.87;;;21.10;59.00;;;;;;5055130;28;20175;-62
2021/05/03 00:26:43;;;;;;;17.07;3.70;;;21.30;56.70;;;;;;5061741;28;20198;-65
2021/05/03 00:29:09;;;;;;;29.60;4.13;;;21.30;57.10;;;;;;5060964;28;20727;-63
2021/05/03 00:31:36;;;;;;;11.03;3.30;;;21.20;59.60;;;;;;5064710;28;20279;-64
2021/05/03 00:34:04;;;;;;;17.07;3.63;;;21.10;58.00;;;;;;5063407;28;20188;-66
2021/05/03 00:36:30;;;;;;;21.70;4.03;;;21.20;57.10;;;;;;5063325;28;20210;-65
2021/05/03 00:38:57;;;;;;;21.60;3.73;;;21.20;57.70;;;;;;5060942;28;20811;-65
2021/05/03 00:41:23;;;;;;;20.47;3.30;;;21.30;57.00;;;;;;5058114;28;20285;-66
2021/05/03 00:43:51;;;;;;;16.50;3.67;;;21.40;57.70;;;;;;5056499;28;20207;-67
2021/05/03 00:46:20;;;;;;;22.03;4.03;;;21.30;58.70;;;;;;5062305;28;20662;-66
2021/05/03 00:48:48;;;;;;;16.60;3.50;;;21.20;58.70;;;;;;5058704;28;20219;-63
2021/05/03 00:51:14;;;;;;;12.57;3.07;;;21.10;59.50;;;;;;5064281;28;20229;-65
2021/05/03 00:53:41;;;;;;;21.90;3.70;;;21.10;59.20;;;;;;5064291;28;20296;-69
2021/05/03 00:56:08;;;;;;;17.90;4.07;;;21.10;60.30;;;;;;5061587;28;20260;-63
2021/05/03 00:58:36;;;;;;;20.47;3.37;;;21.10;59.80;;;;;;5063369;28;20179;-67
2021/05/03 01:01:04;;;;;;;13.13;4.00;;;21.00;60.40;;;;;;5061834;28;20195;-66
2021/05/03 01:03:31;;;;;;;18.43;3.67;;;21.00;61.20;;;;;;5061529;28;20598;-65
2021/05/03 01:05:57;;;;;;;13.97;3.80;;;20.90;61.10;;;;;;5064892;28;20194;-66
2021/05/03 01:08:24;;;;;;;23.07;4.10;;;20.80;62.40;;;;;;5060484;28;20179;-64
2021/05/03 01:10:51;;;;;;;16.70;3.83;;;20.80;61.30;;;;;;5060956;28;20187;-65
2021/05/03 01:13:17;;;;;;;24.07;3.90;;;20.80;62.30;;;;;;5071352;28;20214;-66
2021/05/03 01:15:43;;;;;;;22.37;3.83;;;20.70;64.50;;;;;;5048268;28;20271;-65
2021/05/03 01:18:10;;;;;;;18.67;4.30;;;20.50;64.30;;;;;;5061712;28;20190;-64
2021/05/03 01:20:38;;;;;;;21.17;3.83;;;20.40;64.80;;;;;;5062169;28;20270;-62
2021/05/03 01:23:07;;;;;;;19.60;4.33;;;20.30;64.60;;;;;;5064933;28;20194;-65
2021/05/03 01:25:39;;;;;;;16.73;3.63;;;20.60;64.10;;;;;;5064407;28;20219;-64
2021/05/03 01:28:07;;;;;;;15.47;3.20;;;20.60;63.80;;;;;;5065121;28;20670;-65
2021/05/03 01:30:41;;;;;;;17.60;4.03;;;20.60;65.10;;;;;;5075429;28;20186;-65
2021/05/03 01:33:10;;;;;;;22.40;4.10;;;20.50;65.90;;;;;;5060481;28;20188;-65
2021/05/03 01:35:39;;;;;;;26.57;4.33;;;20.40;65.50;;;;;;5059952;28;20552;-68
2021/05/03 01:38:07;;;;;;;14.20;3.80;;;20.50;65.20;;;;;;5060559;28;20180;-66
2021/05/03 01:40:37;;;;;;;13.37;3.63;;;20.50;65.60;;;;;;5060385;28;20189;-68
2021/05/03 01:43:22;;;;;;;27.87;4.13;;;20.60;65.60;;;;;;5060459;28;20302;-65
2021/05/03 01:45:51;;;;;;;15.73;3.60;;;20.60;65.60;;;;;;5060116;28;20184;-64
2021/05/03 01:48:21;;;;;;;16.83;3.70;;;20.60;65.90;;;;;;5061399;28;20798;-65
2021/05/03 01:50:49;;;;;;;14.60;3.67;;;20.60;66.80;;;;;;5061937;28;20195;-65
2021/05/03 01:53:17;;;;;;;16.57;3.83;;;20.50;66.70;;;;;;5062737;28;20201;-70
2021/05/03 01:55:54;;;;;;;24.13;4.10;;;20.40;66.90;;;;;;5062464;28;20528;-69
2021/05/03 01:58:23;;;;;;;17.50;3.47;;;20.50;66.50;;;;;;5059602;28;20198;-68
2021/05/03 02:00:50;;;;;;;26.20;4.77;;;20.50;66.70;;;;;;5059100;28;20182;-65
2021/05/03 02:03:28;;;;;;;18.73;3.83;;;20.50;67.00;;;;;;5061688;28;20270;-65
2021/05/03 02:05:56;;;;;;;18.27;3.67;;;20.50;67.60;;;;;;5060976;28;20197;-66
2021/05/03 02:08:23;;;;;;;13.57;3.67;;;20.50;67.60;;;;;;5062170;28;20190;-66
2021/05/03 02:10:52;;;;;;;16.37;3.50;;;20.50;67.70;;;;;;5072370;28;20469;-65
2021/05/03 02:13:20;;;;;;;22.27;4.40;;;20.50;68.20;;;;;;5073785;28;21056;-64
2021/05/03 02:15:47;;;;;;;20.60;4.10;;;20.50;67.80;;;;;;5061277;28;20199;-63
2021/05/03 02:18:16;;;;;;;20.17;4.23;;;20.50;67.60;;;;;;5062464;28;20642;-64
2021/05/03 02:20:43;;;;;;;13.57;3.43;;;20.50;68.40;;;;;;5054686;28;20666;-64
2021/05/03 02:23:11;;;;;;;17.97;4.20;;;20.50;68.00;;;;;;5061457;28;20194;-64
2021/05/03 02:25:38;;;;;;;13.03;3.57;;;20.50;67.80;;;;;;5052522;28;20187;-65
2021/05/03 02:28:04;;;;;;;21.47;4.20;;;20.40;68.70;;;;;;5071830;28;20183;-69
2021/05/03 02:30:31;;;;;;;17.80;3.43;;;20.30;69.30;;;;;;5063094;28;20574;-69
2021/05/03 02:32:57;;;;;;;23.93;4.57;;;20.20;69.80;;;;;;5062167;28;20182;-67
2021/05/03 02:35:28;;;;;;;19.53;3.87;;;20.20;70.10;;;;;;5060327;28;20264;-67
2021/05/03 02:37:58;;;;;;;14.53;3.73;;;20.20;70.00;;;;;;5062783;28;20217;-66
2021/05/03 02:40:26;;;;;;;16.77;3.80;;;20.10;70.20;;;;;;5061787;28;20199;-67
2021/05/03 02:42:56;;;;;;;16.83;3.90;;;20.10;70.50;;;;;;5061550;28;20213;-67
2021/05/03 02:45:24;;;;;;;19.40;4.17;;;20.10;70.60;;;;;;5061536;28;20336;-68
2021/05/03 02:47:51;;;;;;;19.27;3.77;;;20.10;70.70;;;;;;5058580;28;20188;-67
2021/05/03 02:50:22;;;;;;;14.03;3.20;;;20.00;70.50;;;;;;5061744;28;20198;-66
2021/05/03 02:52:53;;;;;;;18.67;4.43;;;20.00;70.50;;;;;;5061531;28;20302;-66
2021/05/03 02:55:21;;;;;;;14.60;3.80;;;20.00;71.10;;;;;;5059156;28;20197;-66
2021/05/03 02:57:50;;;;;;;16.73;3.73;;;20.00;71.50;;;;;;5059833;28;20269;-64
2021/05/03 03:00:29;;;;;;;16.97;3.70;;;19.90;71.70;;;;;;5057687;28;20240;-65
2021/05/03 03:02:56;;;;;;;21.47;4.07;;;19.80;72.70;;;;;;5056925;28;20183;-66
2021/05/03 03:05:24;;;;;;;18.43;3.70;;;19.80;71.80;;;;;;5057283;28;20187;-67
2021/05/03 03:07:51;;;;;;;14.57;3.47;;;19.80;71.90;;;;;;5064197;28;20271;-68
2021/05/03 03:10:21;;;;;;;16.30;3.77;;;19.80;72.00;;;;;;5059851;28;20183;-68
2021/05/03 03:12:48;;;;;;;16.97;3.73;;;19.80;72.30;;;;;;5056046;28;20191;-69
2021/05/03 03:15:18;;;;;;;16.30;3.90;;;19.90;72.10;;;;;;5058028;28;20198;-65
2021/05/03 03:17:50;;;;;;;17.93;3.27;;;19.90;72.20;;;;;;5058403;28;20215;-64
2021/05/03 03:20:19;;;;;;;17.27;3.97;;;19.90;72.90;;;;;;5062083;28;20191;-66
2021/05/03 03:22:46;;;;;;;16.83;3.70;;;19.80;73.60;;;;;;5058765;28;20187;-67
2021/05/03 03:25:13;;;;;;;16.97;3.57;;;19.80;74.10;;;;;;5058441;28;20195;-71
2021/05/03 03:27:40;;;;;;;17.37;4.10;;;19.70;73.80;;;;;;5061348;28;20191;-68
2021/05/03 03:30:11;;;;;;;18.33;3.77;;;19.80;73.80;;;;;;5057735;28;20198;-63
2021/05/03 03:32:43;;;;;;;18.57;4.00;;;19.80;73.90;;;;;;5057659;28;20198;-67
2021/05/03 03:35:12;;;;;;;11.00;3.30;;;19.90;74.00;;;;;;5060305;28;20217;-65
2021/05/03 03:37:39;;;;;;;18.77;3.93;;;19.90;74.30;;;;;;5062168;28;20215;-67
2021/05/03 03:40:07;;;;;;;16.87;3.30;;;19.80;74.00;;;;;;5062121;28;20178;-68
2021/05/03 03:42:33;;;;;;;21.33;4.30;;;19.90;74.40;;;;;;5064772;28;20191;-66
2021/05/03 03:45:00;;;;;;;14.07;3.47;;;19.90;74.80;;;;;;5058869;28;20708;-67
2021/05/03 03:47:27;;;;;;;20.23;3.93;;;19.80;74.60;;;;;;5063291;28;20536;-66
2021/05/03 03:49:54;;;;;;;18.70;4.03;;;19.90;74.60;;;;;;5062533;28;20623;-65
2021/05/03 03:52:20;;;;;;;24.17;3.87;;;19.90;75.20;;;;;;5066371;28;20202;-66
2021/05/03 03:54:47;;;;;;;14.23;3.63;;;19.90;75.60;;;;;;5063601;28;20581;-65
2021/05/03 03:57:14;;;;;;;19.43;3.73;;;19.90;76.00;;;;;;5061548;28;20255;-64
2021/05/03 03:59:42;;;;;;;17.50;4.10;;;19.80;76.50;;;;;;5062289;28;20281;-65
2021/05/03 04:02:09;;;;;;;17.87;3.67;;;19.90;77.50;;;;;;5064397;28;20196;-66
2021/05/03 04:04:39;;;;;;;15.93;3.90;;;19.90;77.60;;;;;;5065024;28;20179;-66
2021/05/03 04:07:25;;;;;;;16.53;3.83;;;20.00;77.70;;;;;;5066438;28;20183;-67
2021/05/03 04:13:00;;;;;;;11.33;3.20;;;20.30;78.30;;;;;;5041037;28;20190;-67
2021/05/03 04:24:08;;;;;;;11.90;2.97;;;20.60;81.60;;;;;;5065818;28;20196;-65
2021/05/03 04:26:30;;;;;;;19.60;3.60;;;20.60;83.60;;;;;;5061829;28;20187;-63
2021/05/03 04:28:57;;;;;;;15.93;3.00;;;20.70;84.00;;;;;;5064430;28;20202;-65
2021/05/03 04:31:24;;;;;;;19.50;3.60;;;20.90;85.70;;;;;;5062926;28;20248;-64
2021/05/03 04:33:52;;;;;;;18.53;3.60;;;20.90;87.70;;;;;;5046450;28;20190;-69
2021/05/03 04:36:19;;;;;;;16.10;4.17;;;21.00;88.10;;;;;;5079422;28;20383;-66
2021/05/03 04:38:47;;;;;;;16.43;3.50;;;21.10;89.60;;;;;;5059054;28;20183;-65
2021/05/03 04:41:14;;;;;;;19.67;3.47;;;21.20;91.00;;;;;;5065218;28;20182;-64
2021/05/03 04:43:41;;;;;;;29.30;4.60;;;21.20;92.40;;;;;;5056114;28;20520;-67
2021/05/03 04:46:08;;;;;;;21.07;4.30;;;21.40;92.00;;;;;;5058762;28;20196;-65
2021/05/03 04:48:36;;;;;;;20.83;3.30;;;21.60;91.30;;;;;;5063494;28;20175;-64
2021/05/03 04:51:04;;;;;;;16.37;3.70;;;21.70;93.00;;;;;;5061762;28;20242;-65
2021/05/03 04:53:30;;;;;;;17.50;3.33;;;21.80;93.20;;;;;;5077742;28;20229;-64
2021/05/03 04:55:57;;;;;;;13.63;3.63;;;22.00;93.80;;;;;;5063537;28;20204;-67
2021/05/03 04:58:24;;;;;;;18.70;4.13;;;22.20;93.90;;;;;;5063274;28;20972;-67
2021/05/03 05:00:50;;;;;;;14.93;3.67;;;22.30;92.50;;;;;;5045368;28;20655;-64
2021/05/03 05:03:17;;;;;;;18.73;3.90;;;22.20;94.70;;;;;;5065931;28;20188;-67
2021/05/03 05:05:46;;;;;;;21.37;4.40;;;22.10;94.40;;;;;;5062688;28;20175;-67
2021/05/03 05:08:12;;;;;;;17.57;4.90;;;22.20;92.80;;;;;;5059793;28;20217;-64
2021/05/03 05:10:38;;;;;;;17.57;3.80;;;22.20;91.80;;;;;;5062323;28;20194;-65
2021/05/03 05:13:05;;;;;;;23.10;4.27;;;22.20;90.00;;;;;;5064822;28;20501;-65
2021/05/03 05:15:31;;;;;;;20.33;4.97;;;22.40;86.30;;;;;;5061718;28;20183;-66
2021/05/03 05:17:58;;;;;;;19.77;4.17;;;22.40;88.00;;;;;;5062383;28;20215;-67
2021/05/03 05:20:26;;;;;;;18.83;3.73;;;22.30;91.50;;;;;;5063577;28;20631;-64
2021/05/03 05:22:52;;;;;;;17.17;3.83;;;22.30;91.20;;;;;;5060618;28;20207;-70
2021/05/03 05:25:19;;;;;;;15.90;3.30;;;22.30;91.00;;;;;;5064596;28;20218;-67
2021/05/03 05:27:45;;;;;;;18.13;4.13;;;22.20;90.20;;;;;;5062151;28;20218;-67
2021/05/03 05:30:12;;;;;;;20.33;3.90;;;22.40;85.90;;;;;;5060843;28;20197;-66
2021/05/03 05:32:39;;;;;;;20.37;4.20;;;22.60;80.80;;;;;;5062665;28;20286;-67
2021/05/03 05:35:06;;;;;;;23.70;4.50;;;22.60;78.50;;;;;;5058631;28;20198;-66
2021/05/03 05:37:32;;;;;;;23.67;3.63;;;22.50;80.80;;;;;;5060404;28;20224;-67
2021/05/03 05:40:00;;;;;;;18.73;4.53;;;22.30;81.40;;;;;;5059295;28;20206;-66
2021/05/03 05:42:26;;;;;;;21.07;4.67;;;22.30;80.20;;;;;;5062740;28;20186;-65
2021/05/03 05:44:52;;;;;;;19.37;4.13;;;22.50;77.40;;;;;;5059677;28;20848;-66
2021/05/03 05:47:19;;;;;;;25.13;4.50;;;22.40;81.10;;;;;;5061048;28;20190;-69
2021/05/03 05:49:45;;;;;;;25.07;4.20;;;22.50;81.30;;;;;;5062302;28;20337;-68
2021/05/03 05:52:12;;;;;;;25.10;4.93;;;22.70;84.80;;;;;;5061191;28;20698;-67
2021/05/03 05:54:41;;;;;;;26.53;4.60;;;22.70;90.40;;;;;;5063025;28;20187;-66
2021/05/03 05:57:08;;;;;;;27.23;5.20;;;22.60;91.70;;;;;;5057042;28;20238;-66
2021/05/03 05:59:34;;;;;;;30.23;4.80;;;23.00;93.90;;;;;;5061040;28;20190;-65
2021/05/03 06:02:01;;;;;;;22.37;4.53;;;23.10;94.20;;;;;;5060972;28;20190;-66
2021/05/03 06:04:28;;;;;;;32.17;5.53;;;23.20;93.80;;;;;;5061607;28;20194;-66
2021/05/03 06:06:54;;;;;;;23.87;5.30;;;23.40;94.40;;;;;;5064542;28;20201;-66
2021/05/03 06:09:22;;;;;;;31.33;5.53;;;23.40;94.40;;;;;;5061163;28;20199;-65
2021/05/03 06:11:52;;;;;;;24.73;4.97;;;23.40;93.00;;;;;;5062379;28;20191;-68
2021/05/03 06:14:19;;;;;;;30.90;4.50;;;23.60;91.50;;;;;;5063828;28;20194;-66
2021/05/03 06:16:45;;;;;;;25.80;5.37;;;23.70;91.10;;;;;;5061382;28;20215;-64
2021/05/03 06:19:12;;;;;;;26.77;4.90;;;23.70;91.00;;;;;;5056607;28;20191;-66
2021/05/03 06:21:40;;;;;;;23.87;4.93;;;23.80;91.70;;;;;;5063518;28;20408;-64
2021/05/03 06:24:07;;;;;;;26.77;4.60;;;24.00;91.30;;;;;;5061461;28;20236;-69
2021/05/03 06:26:34;;;;;;;25.67;5.80;;;24.00;91.90;;;;;;5061449;28;20256;-65
2021/05/03 06:29:00;;;;;;;19.57;5.20;;;24.00;92.90;;;;;;5060184;28;20190;-65
2021/05/03 06:31:27;;;;;;;21.07;4.70;;;23.90;93.60;;;;;;5056677;28;20216;-69
2021/05/03 06:33:53;;;;;;;31.60;4.70;;;23.90;93.30;;;;;;5060588;28;20298;-70
2021/05/03 06:36:21;;;;;;;28.90;4.37;;;24.00;93.40;;;;;;5059751;28;20238;-69
2021/05/03 06:38:48;;;;;;;29.43;4.93;;;24.10;93.90;;;;;;5058909;28;20202;-66
2021/05/03 06:41:14;;;;;;;34.90;4.90;;;24.20;95.10;;;;;;5060390;28;20825;-67
2021/05/03 06:43:40;;;;;;;25.00;5.40;;;24.40;96.30;;;;;;5060284;28;20199;-65
2021/05/03 06:46:08;;;;;;;39.37;5.53;;;24.40;97.20;;;;;;5059104;28;20191;-65
2021/05/03 06:48:35;;;;;;;23.80;4.63;;;24.40;96.50;;;;;;5059181;28;20298;-69
2021/05/03 06:51:01;;;;;;;24.23;5.57;;;24.50;96.50;;;;;;5071553;28;20195;-64
2021/05/03 06:53:28;;;;;;;30.83;4.30;;;24.60;96.80;;;;;;5057458;28;20186;-64
2021/05/03 06:55:54;;;;;;;28.57;5.20;;;24.60;96.80;;;;;;5054921;28;20195;-66
2021/05/03 06:58:20;;;;;;;29.67;5.53;;;24.60;97.30;;;;;;5056468;28;20247;-67
2021/05/03 07:00:50;;;;;;;24.77;5.00;;;24.60;97.90;;;;;;5054677;28;20187;-67
2021/05/03 07:03:17;;;;;;;32.85;5.35;;;24.70;98.90;;;;;;5052565;28;20183;-67
2021/05/03 07:05:43;;;;;;;26.95;4.97;;;24.60;99.50;;;;;;5055102;28;20198;-68
2021/05/03 07:08:11;;;;;;;19.92;4.63;;;24.60;99.90;;;;;;5055010;28;20199;-69
2021/05/03 07:10:43;;;;;;;29.67;5.18;;;24.60;99.90;;;;;;5064195;28;20195;-67
2021/05/03 07:13:10;;;;;;;22.53;5.20;;;24.70;99.90;;;;;;5064882;28;20221;-66
2021/05/03 07:15:37;;;;;;;21.65;4.70;;;24.90;99.90;;;;;;5065129;28;20542;-67
2021/05/03 07:18:05;;;;;;;25.38;5.47;;;24.90;99.90;;;;;;5062482;28;20219;-67
2021/05/03 07:20:32;;;;;;;34.33;5.50;;;25.20;99.90;;;;;;5079866;28;20190;-69
2021/05/03 07:22:58;;;;;;;33.92;5.85;;;25.70;99.90;;;;;;5064953;28;20187;-67
2021/05/03 07:25:26;;;;;;;27.52;5.55;;;26.20;99.90;;;;;;5066023;28;20193;-67
2021/05/03 07:27:54;;;;;;;34.50;5.50;;;26.50;99.90;;;;;;5064439;28;20222;-67
2021/05/03 07:30:21;;;;;;;25.70;5.47;;;26.60;99.90;;;;;;5065938;28;20601;-69
2021/05/03 07:32:47;;;;;;;27.00;4.88;;;26.50;99.00;;;;;;5066293;28;20183;-66
2021/05/03 07:35:14;;;;;;;38.13;5.07;;;26.40;98.30;;;;;;5046649;28;20202;-66
2021/05/03 07:37:41;;;;;;;24.23;5.25;;;26.50;98.70;;;;;;5064313;28;20207;-65
2021/05/03 07:40:10;;;;;;;27.63;5.07;;;26.70;98.20;;;;;;5062149;28;20179;-68
2021/05/03 07:42:38;;;;;;;34.50;6.05;;;26.90;97.30;;;;;;5065625;28;20268;-69
2021/05/03 07:45:05;;;;;;;33.95;5.10;;;27.00;96.50;;;;;;5063087;28;20214;-67
2021/05/03 07:47:32;;;;;;;25.70;4.63;;;27.10;95.30;;;;;;5048387;28;20580;-70
2021/05/03 07:49:59;;;;;;;30.23;5.75;;;27.40;94.50;;;;;;5065829;28;20546;-69
2021/05/03 07:52:27;;;;;;;20.38;4.88;;;27.70;94.90;;;;;;5063437;28;20183;-69
2021/05/03 07:54:53;;;;;;;25.95;5.07;;;27.70;94.40;;;;;;5051795;28;20194;-66
2021/05/03 07:57:19;;;;;;;25.23;4.70;;;27.80;94.10;;;;;;5065224;28;20679;-66
2021/05/03 07:59:46;;;;;;;26.15;5.43;;;28.00;93.10;;;;;;5063900;28;20179;-65
2021/05/03 08:02:12;;;;;;;30.17;4.28;;;28.00;94.10;;;;;;5067085;28;20662;-66
2021/05/03 08:04:38;;;;;;;26.73;5.32;;;28.00;94.20;;;;;;5061947;28;20222;-66
2021/05/03 08:07:05;;;;;;;24.77;4.80;;;28.10;93.60;;;;;;5061290;28;20252;-67
2021/05/03 08:09:32;;;;;;;23.17;4.88;;;28.20;94.20;;;;;;5065847;28;20198;-65
2021/05/03 08:12:00;;;;;;;26.65;4.88;;;28.40;91.10;;;;;;5057180;28;20269;-65
2021/05/03 08:14:26;;;;;;;16.73;4.28;;;28.60;87.10;;;;;;5065223;28;20188;-64
2021/05/03 08:16:59;;;;;;;29.77;5.47;;;28.80;88.40;;;;;;5053918;28;20210;-66
2021/05/03 08:19:27;;;;;;;27.85;4.78;;;29.00;90.00;;;;;;5045319;28;20532;-66
2021/05/03 08:21:54;;;;;;;31.23;5.75;;;29.10;90.10;;;;;;5060469;28;20179;-65
2021/05/03 08:24:22;;;;;;;29.08;4.88;;;29.30;90.20;;;;;;5058847;28;20206;-64
2021/05/03 08:26:48;;;;;;;23.90;5.55;;;29.40;88.30;;;;;;5058229;28;20189;-64
2021/05/03 08:29:14;;;;;;;33.42;5.43;;;29.50;86.40;;;;;;5061621;28;20571;-65
2021/05/03 08:31:42;;;;;;;26.00;4.88;;;29.60;84.50;;;;;;5061134;28;20194;-65
2021/05/03 08:34:10;;;;;;;29.30;4.85;;;29.60;88.20;;;;;;5060993;28;20199;-66
2021/05/03 08:36:37;;;;;;;24.00;4.93;;;29.80;85.50;;;;;;5059752;28;20210;-67
2021/05/03 08:39:08;;;;;;;24.13;5.35;;;29.90;85.90;;;;;;5058375;28;20187;-64
2021/05/03 08:41:35;;;;;;;24.83;4.47;;;29.90;84.60;;;;;;5044822;28;20189;-66
2021/05/03 08:44:03;;;;;;;25.52;4.95;;;29.80;84.80;;;;;;5058210;28;20183;-67
2021/05/03 08:46:31;;;;;;;21.73;5.25;;;29.80;84.90;;;;;;5071447;28;20288;-67
2021/05/03 08:49:05;;;;;;;22.00;5.13;;;30.00;84.00;;;;;;5064195;28;20194;-68
2021/05/03 08:57:07;;;;;;;21.83;4.50;;;30.30;71.90;;;;;;5060445;28;20202;-67
2021/05/03 08:59:38;;;;;;;30.42;5.07;;;30.40;74.10;;;;;;5056128;28;20190;-65
2021/05/03 09:02:08;;;;;;;20.23;4.38;;;30.50;73.80;;;;;;5060064;28;20230;-66
2021/05/03 09:04:35;;;;;;;22.27;4.55;;;30.50;72.50;;;;;;5061595;28;20184;-65
2021/05/03 09:07:15;;;;;;;24.42;4.82;;;30.70;72.70;;;;;;5045651;28;20194;-65
2021/05/03 09:09:52;;;;;;;29.08;4.78;;;30.70;73.90;;;;;;5058742;28;20198;-68
2021/05/03 09:12:26;;;;;;;29.45;5.40;;;30.80;70.10;;;;;;5059517;28;20722;-68
2021/05/03 09:14:59;;;;;;;27.85;5.20;;;30.80;71.50;;;;;;5056182;28;20532;-66
2021/05/03 09:17:34;;;;;;;33.28;5.15;;;30.80;72.00;;;;;;5043727;28;20221;-66
2021/05/03 09:20:16;;;;;;;24.90;4.70;;;30.90;67.00;;;;;;5063529;28;20206;-66
2021/05/03 09:23:08;;;;;;;30.63;5.32;;;31.10;70.50;;;;;;5055891;28;20178;-68
2021/05/03 09:25:38;;;;;;;16.00;4.10;;;31.20;67.60;;;;;;5060715;28;20269;-66
2021/05/03 09:28:19;;;;;;;24.55;4.20;;;31.30;67.20;;;;;;5058544;28;20196;-65
2021/05/03 09:30:55;;;;;;;25.38;4.40;;;31.50;65.00;;;;;;5060816;28;20191;-66
2021/05/03 09:33:37;;;;;;;18.83;3.97;;;31.40;61.00;;;;;;5057240;28;20705;-67
2021/05/03 09:36:10;;;;;;;30.38;4.45;;;31.40;59.90;;;;;;5062375;28;20216;-64
2021/05/03 09:38:45;;;;;;;24.75;4.30;;;31.50;59.30;;;;;;5062801;28;20210;-67
2021/05/03 09:41:28;;;;;;;14.77;4.43;;;31.50;62.60;;;;;;5062318;28;20573;-66
2021/05/03 09:44:08;;;;;;;21.27;4.28;;;31.60;60.70;;;;;;5060389;28;20222;-67
2021/05/03 09:46:42;;;;;;;22.20;4.65;;;31.70;59.40;;;;;;5063296;28;20230;-68
2021/05/03 09:49:10;;;;;;;21.95;4.50;;;31.80;58.30;;;;;;5059875;28;20651;-67
2021/05/03 09:51:59;;;;;;;19.52;4.20;;;31.80;57.00;;;;;;5064141;28;20291;-67
2021/05/03 09:54:31;;;;;;;21.48;4.00;;;31.80;56.80;;;;;;5061190;28;20192;-66
2021/05/03 09:57:10;;;;;;;20.05;4.57;;;32.10;56.10;;;;;;5060708;28;20206;-66
2021/05/03 09:59:44;;;;;;;18.13;3.90;;;32.10;53.60;;;;;;5061659;28;20174;-67
2021/05/03 10:02:32;;;;;;;26.70;4.10;;;32.30;50.70;;;;;;5057875;28;20570;-67
2021/05/03 10:05:19;;;;;;;20.05;4.07;;;32.40;51.90;;;;;;5079910;28;20278;-66
2021/05/03 10:07:54;;;;;;;20.35;3.72;;;32.50;51.70;;;;;;5048397;28;20199;-68
2021/05/03 10:10:36;;;;;;;21.00;3.92;;;32.70;52.00;;;;;;5060527;28;20667;-70
2021/05/03 10:13:03;;;;;;;26.02;4.43;;;32.90;50.90;;;;;;5054800;28;20209;-67
2021/05/03 10:15:32;;;;;;;29.13;3.75;;;32.90;50.00;;;;;;5075215;28;20229;-66
2021/05/03 10:17:58;;;;;;;19.33;4.60;;;32.70;50.90;;;;;;5052249;28;20211;-67
2021/05/03 10:20:25;;;;;;;16.25;4.15;;;33.30;48.80;;;;;;5061886;28;20183;-66
2021/05/03 10:22:56;;;;;;;18.90;4.35;;;33.30;49.10;;;;;;5063776;28;20186;-67
2021/05/03 10:25:23;;;;;;;18.98;4.38;;;33.50;49.10;;;;;;5059526;28;20560;-67
2021/05/03 10:27:53;;;;;;;14.77;4.18;;;33.80;48.20;;;;;;5058162;28;20244;-66
2021/05/03 10:30:24;;;;;;;18.88;4.20;;;33.80;46.80;;;;;;5057756;28;20199;-67
2021/05/03 10:33:09;;;;;;;21.70;4.45;;;33.60;49.60;;;;;;5060989;28;20191;-70
2021/05/03 10:35:44;;;;;;;21.20;4.57;;;33.80;49.80;;;;;;5061559;28;20248;-69
2021/05/03 10:38:28;;;;;;;23.55;4.38;;;33.90;50.80;;;;;;5059185;28;20595;-71
2021/05/03 10:40:59;;;;;;;23.48;4.45;;;33.90;49.20;;;;;;5060690;28;20198;-71
2021/05/03 10:43:43;;;;;;;26.90;4.38;;;33.80;50.70;;;;;;5060857;28;20191;-68
2021/05/03 10:51:51;;;;;;;26.90;4.88;;;33.60;50.50;;;;;;5062225;28;20236;-69
2021/05/03 10:56:51;;;;;;;25.30;4.15;;;33.50;51.30;;;;;;5060386;28;20211;-66
2021/05/03 10:59:18;;;;;;;18.52;4.15;;;33.50;51.00;;;;;;5059514;28;20194;-68
2021/05/03 11:02:05;;;;;;;19.42;4.03;;;33.30;50.90;;;;;;5060093;28;20938;-67
2021/05/03 11:04:34;;;;;;;28.38;4.38;;;33.20;52.80;;;;;;5059243;28;20182;-66
2021/05/03 11:07:11;;;;;;;21.73;4.72;;;33.10;48.40;;;;;;5056550;28;20716;-67
2021/05/03 11:09:41;;;;;;;21.05;4.68;;;33.20;49.20;;;;;;5075108;28;20309;-68
2021/05/03 11:12:12;;;;;;;14.50;3.92;;;33.00;51.60;;;;;;5062318;28;20709;-67
2021/05/03 11:15:15;;;;;;;16.38;4.22;;;33.10;50.20;;;;;;5063386;28;20183;-66
2021/05/03 11:18:24;;;;;;;34.60;5.10;;;33.10;51.90;;;;;;5061326;28;20314;-67
2021/05/03 11:21:10;;;;;;;12.55;4.00;;;32.90;51.80;;;;;;5056192;28;20221;-68
2021/05/03 11:23:38;;;;;;;23.00;4.40;;;33.00;50.70;;;;;;5058609;28;20187;-67
2021/05/03 11:26:20;;;;;;;22.50;4.22;;;32.90;48.50;;;;;;5061407;28;20187;-67
2021/05/03 11:28:47;;;;;;;19.42;4.80;;;32.90;49.60;;;;;;5055304;28;20244;-67
2021/05/03 11:31:17;;;;;;;18.42;3.92;;;33.10;50.00;;;;;;5058804;28;20282;-67
2021/05/03 11:33:51;;;;;;;15.52;4.38;;;33.20;48.80;;;;;;5060409;28;20191;-66
2021/05/03 11:36:24;;;;;;;18.15;3.80;;;33.20;48.20;;;;;;5056843;28;20227;-67
2021/05/03 11:44:57;;;;;;;22.92;4.30;;;33.20;46.40;;;;;;5030960;28;20190;-68
2021/05/03 11:47:31;;;;;;;19.95;4.28;;;33.30;46.70;;;;;;5036520;28;20230;-68
2021/05/03 11:50:00;;;;;;;18.20;5.18;;;33.30;48.10;;;;;;5026660;28;20203;-69
2021/05/03 11:52:38;;;;;;;21.52;4.30;;;33.30;47.20;;;;;;5041525;28;20187;-67
2021/05/03 11:55:13;;;;;;;22.38;6.30;;;33.20;47.60;;;;;;5057750;28;20187;-70
2021/05/03 11:57:45;;;;;;;19.45;3.80;;;33.20;48.80;;;;;;5062387;28;20238;-67
2021/05/03 12:00:30;;;;;;;20.45;5.20;;;33.40;47.60;;;;;;5062050;28;20187;-68
2021/05/03 12:03:03;;;;;;;25.17;5.60;;;33.40;47.60;;;;;;5062600;28;20194;-66
2021/05/03 12:05:31;;;;;;;22.60;5.00;;;33.40;46.90;;;;;;5063593;28;20193;-67
2021/05/03 12:08:12;;;;;;;19.95;4.07;;;33.30;48.50;;;;;;5064700;28;20284;-67
2021/05/03 12:10:39;;;;;;;25.73;5.78;;;33.10;47.80;;;;;;5062659;28;20179;-66
2021/05/03 12:13:13;;;;;;;20.92;4.45;;;32.90;49.70;;;;;;5062788;28;20421;-66
2021/05/03 12:15:40;;;;;;;21.92;4.60;;;33.10;49.20;;;;;;5061857;28;20697;-66
2021/05/03 12:18:07;;;;;;;29.02;4.63;;;33.10;49.80;;;;;;5065548;28;20267;-67
2021/05/03 12:20:35;;;;;;;17.30;4.25;;;33.10;49.40;;;;;;5063271;28;20190;-67
2021/05/03 12:23:09;;;;;;;31.52;5.35;;;32.90;50.00;;;;;;5065118;28;20175;-66
2021/05/03 12:25:51;;;;;;;20.30;4.10;;;32.70;50.30;;;;;;5063551;28;20213;-68
2021/05/03 12:28:27;;;;;;;18.85;4.47;;;32.40;51.90;;;;;;5078901;28;20256;-66
2021/05/03 12:31:01;;;;;;;18.40;4.47;;;32.40;51.80;;;;;;5061867;28;20187;-67
2021/05/03 12:33:30;;;;;;;21.25;4.22;;;32.30;53.00;;;;;;5063724;28;20257;-67
2021/05/03 12:35:58;;;;;;;22.45;4.72;;;32.30;53.00;;;;;;5064545;28;20321;-68
2021/05/03 12:38:31;;;;;;;27.15;4.28;;;32.20;53.00;;;;;;5064045;28;20197;-67
2021/05/03 12:41:02;;;;;;;22.17;4.93;;;32.40;52.20;;;;;;5066566;28;20178;-68
2021/05/03 12:43:36;;;;;;;19.65;4.38;;;32.20;52.80;;;;;;5079079;28;20233;-67
2021/05/03 12:48:45;;;;;;;18.90;4.90;;;32.30;53.30;;;;;;5076961;28;20183;-67
2021/05/03 12:59:56;;;;;;;20.58;4.30;;;31.50;53.90;;;;;;5064040;28;20240;-67
2021/05/03 13:02:29;;;;;;;16.73;4.10;;;31.40;53.10;;;;;;5064832;28;20195;-67
2021/05/03 13:05:12;;;;;;;32.17;5.07;;;31.20;52.30;;;;;;5064391;28;20179;-66
2021/05/03 13:29:47;;;;;;;13.32;4.22;;;30.30;56.30;;;;;;5062698;28;20186;-66
2021/05/03 13:32:20;;;;;;;29.65;4.82;;;30.40;56.70;;;;;;5058490;28;20644;-69
2021/05/03 13:34:50;;;;;;;24.30;4.68;;;30.40;55.10;;;;;;5065366;28;20229;-68
2021/05/03 13:37:19;;;;;;;29.70;5.45;;;30.30;53.90;;;;;;5062587;28;20262;-67
2021/05/03 13:39:46;;;;;;;25.52;5.00;;;30.30;55.10;;;;;;5079653;28;20669;-68
2021/05/03 13:42:15;;;;;;;21.33;4.70;;;30.30;55.00;;;;;;5063322;28;20187;-67
2021/05/03 13:44:43;;;;;;;22.17;5.07;;;30.30;50.60;;;;;;5061563;28;20190;-68
2021/05/03 13:47:12;;;;;;;22.95;4.93;;;30.40;51.50;;;;;;5044156;28;20809;-67
2021/05/03 13:49:40;;;;;;;32.30;5.43;;;30.50;51.00;;;;;;5063481;28;20195;-66
2021/05/03 13:52:11;;;;;;;19.05;4.78;;;30.40;52.00;;;;;;5062048;28;20290;-68
2021/05/03 13:54:37;;;;;;;17.83;5.00;;;30.10;49.30;;;;;;5075585;28;20448;-66